Battletown, Kentucky
Current Conditions -  °F | °C
As of 9:58 AM on Friday 24 Oct 2014 (Local Time) from KFTK Reporting Station
Overcast Overcast  
Wind Chill: 49°   Ceiling: 11000
Heat Index: 49°   Visibility: 10mi
Dew Point: 45°   Wind: 1mph
Humidity: 83%   Direction: 190°S
Pressure: 30.13"   Gusts: NA
Location:  38.06°N, 86.29°W
Report Text: KFTK 241358Z AUTO 19001KT 10SM OVC110 10/07 A3013 RMK AO2 SLP208 T00970070
Loading
Personal Weather Stations






























Interactive Weather Map
Tropical Storm Tracking
New forecast layout! Learn more

10-Day Weather Forecast

Advertisements
Track Severe Weather on mobile